Terminal Aerodrome Forecast
Issued by NWS

Home | Current Version | Previous Version | Text Only | Print | Product List | Glossary On
Versions: 1 2 3 4 5 6 7 8 9 10 11 12 13 14 15 16 17 18 19 20 21 22 23 24 25 26 27 28 29
021
FTUS41 KALY 042333
TAFPSF
TAF
KPSF 042333Z 0500/0524 00000KT P6SM SCT030 SCT250
     FM050300 00000KT P6SM BKN200
     FM050700 15003KT P6SM VCSH OVC040
     FM050900 15005KT 2SM -SN BR OVC010
     FM051200 15004KT 1SM -SN BR OVC007
     FM051600 15006KT 5SM -SN BR OVC015
     FM052000 28007KT P6SM OVC025=

USA.gov is the U.S. government's official web portal to all federal, state and local government web resources and services.